createdAt,value
2022-12-31T00:02:20.361Z,100432.47
2022-12-31T00:04:46.821Z,100422.16
2022-12-31T00:07:13.152Z,100421.31
2022-12-31T00:09:39.487Z,100433.50
2022-12-31T00:12:06.083Z,100426.56
2022-12-31T00:14:32.489Z,100422.06
2022-12-31T00:16:58.958Z,100428.16
2022-12-31T00:19:25.374Z,100433.31
2022-12-31T00:21:51.773Z,100435.72
2022-12-31T00:24:18.106Z,100440.06
2022-12-31T00:26:44.548Z,100441.00
2022-12-31T00:29:11.051Z,100447.84
2022-12-31T00:31:38.854Z,100445.31
2022-12-31T00:34:06.134Z,100444.56
2022-12-31T00:36:35.876Z,100450.56
2022-12-31T00:39:04.236Z,100444.38
2022-12-31T00:41:31.750Z,100447.00
2022-12-31T00:43:58.225Z,100451.28
2022-12-31T00:46:25.397Z,100447.09
2022-12-31T00:48:52.076Z,100452.25
2022-12-31T00:51:20.921Z,100455.59
2022-12-31T00:53:47.275Z,100453.91
2022-12-31T00:56:19.273Z,100443.41
2022-12-31T00:58:46.139Z,100452.25
2022-12-31T01:01:18.983Z,100447.00
2022-12-31T01:03:47.675Z,100446.88
2022-12-31T01:06:14.396Z,100441.75
2022-12-31T01:08:40.818Z,100444.38
2022-12-31T01:11:20.402Z,100446.25
2022-12-31T01:13:53.922Z,100448.88
2022-12-31T01:16:22.960Z,100445.41
2022-12-31T01:18:50.244Z,100445.41
2022-12-31T01:21:17.872Z,100449.00
2022-12-31T01:23:44.713Z,100446.47
2022-12-31T01:26:13.461Z,100450.88
2022-12-31T01:28:39.898Z,100450.16
2022-12-31T01:31:08.568Z,100446.47
2022-12-31T01:33:35.904Z,100448.34
2022-12-31T01:36:04.446Z,100450.22
2022-12-31T01:38:30.826Z,100449.41
2022-12-31T01:40:57.312Z,100451.19
2022-12-31T01:43:23.709Z,100448.66
2022-12-31T01:45:54.319Z,100463.59
2022-12-31T01:48:26.240Z,100456.66
2022-12-31T01:50:54.751Z,100456.66
2022-12-31T01:53:21.791Z,100455.81
2022-12-31T01:55:56.473Z,100463.69
2022-12-31T01:58:36.629Z,100466.34
2022-12-31T02:01:04.504Z,100473.34
2022-12-31T02:03:31.642Z,100472.63
2022-12-31T02:06:05.420Z,100479.66
2022-12-31T02:08:35.737Z,100487.56
2022-12-31T02:11:23.728Z,100475.38
2022-12-31T02:13:58.196Z,100466.63
2022-12-31T02:16:35.662Z,100442.97
2022-12-31T02:19:23.457Z,100449.16
2022-12-31T02:22:31.884Z,100444.03
2022-12-31T02:25:13.813Z,100448.44
2022-12-31T02:28:21.828Z,100447.50
2022-12-31T02:30:53.292Z,100438.03
2022-12-31T02:33:59.668Z,100423.09
2022-12-31T02:36:31.939Z,100408.28
2022-12-31T02:38:59.434Z,100418.78
2022-12-31T02:41:44.325Z,100417.84
2022-12-31T02:44:24.118Z,100417.09
2022-12-31T02:47:50.516Z,100421.41
2022-12-31T02:50:55.331Z,100442.56
2022-12-31T02:53:44.203Z,100450.53
2022-12-31T02:56:19.995Z,100452.41
2022-12-31T02:59:13.108Z,100462.94
2022-12-31T03:02:04.039Z,100465.66
2022-12-31T03:04:32.475Z,100477.97
2022-12-31T03:07:06.824Z,100483.25
2022-12-31T03:09:34.944Z,100487.75
2022-12-31T03:12:21.017Z,100486.06
2022-12-31T03:14:47.551Z,100492.16
2022-12-31T03:17:14.360Z,100491.31
2022-12-31T03:19:59.525Z,100478.16
2022-12-31T03:22:28.708Z,100483.53
2022-12-31T03:25:54.360Z,100477.44
2022-12-31T03:28:23.275Z,100481.00
2022-12-31T03:30:53.749Z,100489.84
2022-12-31T03:33:21.525Z,100489.06
2022-12-31T03:35:49.320Z,100485.63
2022-12-31T03:38:16.918Z,100484.69
2022-12-31T03:40:49.380Z,100486.44
2022-12-31T03:43:16.585Z,100480.38
2022-12-31T03:45:43.166Z,100485.63
2022-12-31T03:48:10.591Z,100477.84
2022-12-31T03:50:37.300Z,100462.16
2022-12-31T03:53:03.793Z,100474.47
2022-12-31T03:55:30.203Z,100475.41
2022-12-31T03:57:56.996Z,100477.19
2022-12-31T04:00:23.449Z,100474.69
2022-12-31T04:02:50.846Z,100480.88
2022-12-31T04:05:18.163Z,100474.75
2022-12-31T04:07:44.683Z,100463.53
2022-12-31T04:10:13.233Z,100461.84
2022-12-31T04:12:39.979Z,100458.38
2022-12-31T04:15:07.573Z,100454.06
2022-12-31T04:17:34.302Z,100450.50
2022-12-31T04:20:00.688Z,100446.06
2022-12-31T04:22:27.034Z,100446.06
2022-12-31T04:24:53.474Z,100441.75
2022-12-31T04:27:19.864Z,100426.94
2022-12-31T04:29:46.286Z,100426.09
2022-12-31T04:32:12.741Z,100426.00
2022-12-31T04:34:39.180Z,100448.81
2022-12-31T04:37:05.519Z,100442.78
2022-12-31T04:39:32.164Z,100451.72
2022-12-31T04:41:58.637Z,100450.69
2022-12-31T04:44:25.014Z,100457.84
2022-12-31T04:46:51.544Z,100451.72
2022-12-31T04:49:18.040Z,100446.34
2022-12-31T04:51:44.468Z,100456.97
2022-12-31T04:54:11.112Z,100452.59
2022-12-31T04:56:37.679Z,100455.09
2022-12-31T04:59:04.923Z,100454.25
2022-12-31T05:01:31.594Z,100461.19
2022-12-31T05:03:58.736Z,100455.94
2022-12-31T05:06:25.195Z,100440.91
2022-12-31T05:08:51.751Z,100456.78
2022-12-31T05:11:18.281Z,100469.06
2022-12-31T05:13:44.822Z,100467.38
2022-12-31T05:16:11.637Z,100443.72
2022-12-31T05:18:38.156Z,100455.09
2022-12-31T05:21:05.226Z,100458.56
2022-12-31T05:23:31.591Z,100465.59
2022-12-31T05:25:59.649Z,100449.75
2022-12-31T05:28:26.461Z,100460.25
2022-12-31T05:30:52.963Z,100461.94
2022-12-31T05:33:20.648Z,100465.50
2022-12-31T05:35:47.220Z,100477.69
2022-12-31T05:38:13.672Z,100474.13
2022-12-31T05:40:40.024Z,100475.91
2022-12-31T05:43:06.381Z,100477.59
2022-12-31T05:45:32.734Z,100465.22
2022-12-31T05:47:59.207Z,100469.44
2022-12-31T05:50:25.597Z,100474.56
2022-12-31T05:52:52.143Z,100456.91
2022-12-31T05:55:18.790Z,100455.97
2022-12-31T05:57:45.188Z,100463.75
2022-12-31T06:00:12.559Z,100459.25
2022-12-31T06:02:38.965Z,100465.25
2022-12-31T06:05:05.840Z,100460.72
2022-12-31T06:07:32.327Z,100464.31
2022-12-31T06:09:59.004Z,100458.06
2022-12-31T06:12:25.483Z,100461.47
2022-12-31T06:14:51.873Z,100463.16
2022-12-31T06:17:19.010Z,100466.50
2022-12-31T06:19:46.595Z,100468.19
2022-12-31T06:22:12.954Z,100467.16
2022-12-31T06:24:39.381Z,100470.72
2022-12-31T06:27:05.738Z,100475.88
2022-12-31T06:29:32.123Z,100464.41
2022-12-31T06:31:58.459Z,100471.34
2022-12-31T06:34:24.945Z,100478.31
2022-12-31T06:36:51.350Z,100483.56
2022-12-31T06:39:17.747Z,100480.72
2022-12-31T06:41:44.151Z,100491.97
2022-12-31T06:44:10.561Z,100497.03
2022-12-31T06:46:36.935Z,100494.31
2022-12-31T06:49:03.442Z,100494.22
2022-12-31T06:51:29.998Z,100500.00
2022-12-31T06:53:56.452Z,100501.47
2022-12-31T06:56:33.072Z,100499.59
2022-12-31T06:59:02.735Z,100506.44
2022-12-31T07:01:38.332Z,100496.75
2022-12-31T07:04:04.761Z,100488.66
2022-12-31T07:06:40.205Z,100483.41
2022-12-31T07:09:17.337Z,100483.81
2022-12-31T07:12:06.525Z,100482.53
2022-12-31T07:14:46.264Z,100480.78
2022-12-31T07:17:54.054Z,100474.13
2022-12-31T07:20:20.893Z,100472.97
2022-12-31T07:22:48.080Z,100471.59
2022-12-31T07:25:17.328Z,100475.91
2022-12-31T07:27:51.201Z,100483.69
2022-12-31T07:30:24.593Z,100481.47
2022-12-31T07:33:26.275Z,100474.09
2022-12-31T07:36:00.336Z,100482.50
2022-12-31T07:38:29.728Z,100493.66
2022-12-31T07:41:01.603Z,100493.47
2022-12-31T07:43:44.703Z,100502.50
2022-12-31T07:46:28.644Z,100482.81
2022-12-31T07:48:55.359Z,100494.69
2022-12-31T07:51:22.192Z,100494.59
2022-12-31T07:53:48.553Z,100502.47
2022-12-31T07:56:14.982Z,100510.19
2022-12-31T07:58:59.542Z,100514.59
2022-12-31T08:01:47.347Z,100505.63
2022-12-31T08:04:33.853Z,100500.16
2022-12-31T08:07:22.131Z,100499.94
2022-12-31T08:10:14.007Z,100517.66
2022-12-31T08:12:46.804Z,100519.34
2022-12-31T08:15:16.094Z,100510.69
2022-12-31T08:17:42.752Z,100513.22
2022-12-31T08:20:14.634Z,100520.72
2022-12-31T08:23:02.916Z,100508.50
2022-12-31T08:26:06.199Z,100513.84
2022-12-31T08:29:10.095Z,100519.09
2022-12-31T08:31:44.979Z,100521.53
2022-12-31T08:34:22.380Z,100532.19
2022-12-31T08:37:16.410Z,100549.88
2022-12-31T08:40:07.104Z,100563.69
2022-12-31T08:42:36.552Z,100577.06
2022-12-31T08:45:15.172Z,100564.94
2022-12-31T08:48:00.435Z,100581.56
2022-12-31T08:50:27.704Z,100585.91
2022-12-31T08:52:54.506Z,100586.75
2022-12-31T08:55:21.181Z,100609.59
2022-12-31T08:58:18.299Z,100599.81
2022-12-31T09:00:46.520Z,100621.75
2022-12-31T09:03:28.807Z,100630.50
2022-12-31T09:06:10.330Z,100636.69
2022-12-31T09:08:52.696Z,100618.25
2022-12-31T09:11:25.150Z,100629.72
2022-12-31T09:14:21.248Z,100643.84
2022-12-31T09:17:21.472Z,100639.31
2022-12-31T09:19:48.084Z,100631.41
2022-12-31T09:22:14.682Z,100641.75
2022-12-31T09:24:41.301Z,100651.25
2022-12-31T09:27:21.163Z,100655.44
2022-12-31T09:30:04.573Z,100643.03
2022-12-31T09:33:01.041Z,100659.56
2022-12-31T09:35:39.751Z,100638.41
2022-12-31T09:38:17.049Z,100637.34
2022-12-31T09:41:02.109Z,100643.31
2022-12-31T09:43:47.447Z,100641.53
2022-12-31T09:46:55.582Z,100643.00
2022-12-31T09:49:51.132Z,100654.25
2022-12-31T09:52:44.345Z,100654.19
2022-12-31T09:55:31.092Z,100656.59
2022-12-31T09:58:25.466Z,100656.59
2022-12-31T10:00:59.010Z,100645.94
2022-12-31T10:03:38.877Z,100661.63
2022-12-31T10:06:32.983Z,100654.34
2022-12-31T10:09:37.064Z,100657.63
2022-12-31T10:12:28.520Z,100657.44
2022-12-31T10:14:57.783Z,100645.72
2022-12-31T10:17:45.468Z,100652.44
2022-12-31T10:20:30.033Z,100646.94
2022-12-31T10:23:17.907Z,100652.72
2022-12-31T10:26:01.131Z,100650.41
2022-12-31T10:28:30.356Z,100654.25
2022-12-31T10:31:15.007Z,100668.19
2022-12-31T10:34:02.759Z,100667.22
2022-12-31T10:36:48.397Z,100654.69
2022-12-31T10:39:38.177Z,100665.00
2022-12-31T10:42:50.259Z,100659.72
2022-12-31T10:45:45.661Z,100670.06
2022-12-31T10:48:40.028Z,100656.00
2022-12-31T10:51:33.245Z,100669.00
2022-12-31T10:54:02.620Z,100664.56
2022-12-31T10:56:50.844Z,100659.28
2022-12-31T10:59:50.080Z,100654.25
2022-12-31T11:02:34.999Z,100666.34
2022-12-31T11:05:11.609Z,100654.00
2022-12-31T11:07:54.650Z,100672.59
2022-12-31T11:10:47.355Z,100680.88
2022-12-31T11:13:52.467Z,100654.38
2022-12-31T11:16:43.279Z,100673.91
2022-12-31T11:19:24.644Z,100670.22
2022-12-31T11:22:15.294Z,100666.38
2022-12-31T11:25:03.605Z,100656.69
2022-12-31T11:27:49.317Z,100651.31
2022-12-31T11:30:24.526Z,100658.97
2022-12-31T11:33:12.957Z,100653.94
2022-12-31T11:36:24.569Z,100643.63
2022-12-31T11:39:25.836Z,100675.16
2022-12-31T11:42:14.750Z,100661.97
2022-12-31T11:44:47.157Z,100677.81
2022-12-31T11:50:52.668Z,100670.50
2022-12-31T11:53:39.186Z,100670.50
2022-12-31T11:56:17.386Z,100666.56
2022-12-31T11:58:52.137Z,100671.84
2022-12-31T12:01:24.734Z,100670.03
2022-12-31T12:03:51.316Z,100648.72
2022-12-31T12:06:23.905Z,100654.72
2022-12-31T12:08:50.537Z,100662.28
2022-12-31T12:11:30.334Z,100642.63
2022-12-31T12:13:56.973Z,100667.25
2022-12-31T12:16:25.344Z,100662.47
2022-12-31T12:19:04.103Z,100650.22
2022-12-31T12:21:30.731Z,100647.69
2022-12-31T12:24:06.263Z,100643.25
2022-12-31T12:26:47.263Z,100640.63
2022-12-31T12:29:18.116Z,100641.81
2022-12-31T12:32:17.620Z,100640.97
2022-12-31T12:34:49.361Z,100640.84
2022-12-31T12:37:25.089Z,100642.41
2022-12-31T12:40:04.327Z,100654.88
2022-12-31T12:42:31.477Z,100639.03
2022-12-31T12:45:06.239Z,100633.66
2022-12-31T12:47:34.236Z,100640.72
2022-12-31T12:50:00.946Z,100645.78
2022-12-31T12:52:56.401Z,100645.88
2022-12-31T12:55:49.787Z,100666.69
2022-12-31T12:58:34.089Z,100646.06
2022-12-31T13:01:14.826Z,100672.34
2022-12-31T13:04:14.608Z,100666.22
2022-12-31T13:06:45.292Z,100690.59
2022-12-31T13:09:22.465Z,100664.94
2022-12-31T13:11:54.127Z,100677.41
2022-12-31T13:14:32.758Z,100683.19
2022-12-31T13:17:17.824Z,100672.53
2022-12-31T13:20:11.816Z,100681.41
2022-12-31T13:22:45.204Z,100684.88
2022-12-31T13:25:48.676Z,100678.00
2022-12-31T13:28:18.054Z,100672.84
2022-12-31T13:30:49.311Z,100674.88
2022-12-31T13:33:23.774Z,100683.84
2022-12-31T13:35:59.351Z,100689.47
2022-12-31T13:38:40.529Z,100682.63
2022-12-31T13:41:25.475Z,100692.31
2022-12-31T13:44:16.231Z,100689.69
2022-12-31T13:47:03.552Z,100685.28
2022-12-31T13:49:36.640Z,100700.25
2022-12-31T13:52:19.163Z,100685.47
2022-12-31T13:54:57.026Z,100705.75
2022-12-31T13:57:40.856Z,100697.84
2022-12-31T14:00:21.242Z,100692.69
2022-12-31T14:02:53.795Z,100688.25
2022-12-31T14:05:34.264Z,100690.13
2022-12-31T14:08:02.725Z,100691.94
2022-12-31T14:10:54.607Z,100685.84
2022-12-31T14:13:32.510Z,100686.44
2022-12-31T14:16:06.952Z,100679.38
2022-12-31T14:18:44.849Z,100687.16
2022-12-31T14:21:23.252Z,100683.78
2022-12-31T14:24:09.693Z,100680.09
2022-12-31T14:26:44.335Z,100688.00
2022-12-31T14:29:10.976Z,100696.91
2022-12-31T14:31:49.758Z,100709.22
2022-12-31T14:34:29.113Z,100731.81
2022-12-31T14:37:09.160Z,100731.91
2022-12-31T14:40:00.741Z,100726.47
2022-12-31T14:42:40.915Z,100717.84
2022-12-31T14:45:38.697Z,100721.09
2022-12-31T14:48:20.186Z,100726.56
2022-12-31T14:50:48.836Z,100721.41
2022-12-31T14:53:22.203Z,100735.34
2022-12-31T14:56:01.402Z,100729.97
2022-12-31T14:58:42.659Z,100735.44
2022-12-31T15:01:15.249Z,100746.84
2022-12-31T15:03:46.350Z,100744.22
2022-12-31T15:06:22.388Z,100740.72
2022-12-31T15:09:26.445Z,100748.75
2022-12-31T15:12:09.957Z,100747.94
2022-12-31T15:15:15.380Z,100740.13
2022-12-31T15:17:59.794Z,100735.91
2022-12-31T15:20:55.556Z,100732.41
2022-12-31T15:23:37.020Z,100718.38
2022-12-31T15:26:05.478Z,100722.81
2022-12-31T15:28:34.101Z,100722.72
2022-12-31T15:31:19.091Z,100721.66
2022-12-31T15:34:01.285Z,100721.09
2022-12-31T15:36:31.777Z,100719.28
2022-12-31T15:39:11.946Z,100720.22
2022-12-31T15:42:03.071Z,100702.63
2022-12-31T15:44:37.866Z,100691.00
2022-12-31T15:47:29.618Z,100701.56
2022-12-31T15:50:01.662Z,100704.91
2022-12-31T15:52:42.897Z,100701.31
2022-12-31T15:55:20.300Z,100707.22
2022-12-31T15:57:47.195Z,100706.97
2022-12-31T16:00:20.230Z,100712.16
2022-12-31T16:02:48.218Z,100709.28
2022-12-31T16:05:26.779Z,100708.25
2022-12-31T16:07:59.077Z,100714.34
2022-12-31T16:10:29.259Z,100703.47
2022-12-31T16:12:57.318Z,100712.00
2022-12-31T16:15:27.377Z,100712.84
2022-12-31T16:18:22.402Z,100718.56
2022-12-31T16:20:49.321Z,100719.44
2022-12-31T16:23:24.897Z,100704.28
2022-12-31T16:25:53.581Z,100692.78
2022-12-31T16:28:22.028Z,100687.06
2022-12-31T16:31:15.122Z,100677.44
2022-12-31T16:33:41.684Z,100684.16
2022-12-31T16:36:20.832Z,100695.94
2022-12-31T16:38:47.634Z,100701.44
2022-12-31T16:41:19.678Z,100689.31
2022-12-31T16:43:47.752Z,100695.22
2022-12-31T16:46:17.199Z,100681.16
2022-12-31T16:48:55.203Z,100680.31
2022-12-31T16:51:25.787Z,100694.22
2022-12-31T16:53:52.352Z,100690.66
2022-12-31T16:56:34.241Z,100687.28
2022-12-31T16:59:12.550Z,100697.84
2022-12-31T17:01:39.704Z,100695.22
2022-12-31T17:04:11.238Z,100677.81
2022-12-31T17:06:37.809Z,100676.72
2022-12-31T17:09:13.815Z,100674.19
2022-12-31T17:11:55.071Z,100679.47
2022-12-31T17:14:27.514Z,100697.44
2022-12-31T17:17:05.673Z,100694.94
2022-12-31T17:19:42.494Z,100698.44
2022-12-31T17:22:32.755Z,100685.59
2022-12-31T17:25:05.639Z,100679.72
2022-12-31T17:27:32.625Z,100686.06
2022-12-31T17:30:29.844Z,100685.22
2022-12-31T17:33:12.418Z,100687.75
2022-12-31T17:35:42.266Z,100672.13
2022-12-31T17:38:20.846Z,100676.94
2022-12-31T17:40:51.578Z,100672.03
2022-12-31T17:43:21.022Z,100668.53
2022-12-31T17:45:50.191Z,100672.97
2022-12-31T17:48:19.108Z,100677.53
2022-12-31T17:50:57.175Z,100676.69
2022-12-31T17:53:23.687Z,100689.88
2022-12-31T17:55:52.695Z,100682.69
2022-12-31T17:58:31.841Z,100688.81
2022-12-31T18:00:59.049Z,100688.81
2022-12-31T18:03:25.551Z,100695.88
2022-12-31T18:05:51.928Z,100684.63
2022-12-31T18:08:18.399Z,100687.13
2022-12-31T18:10:45.503Z,100694.94
2022-12-31T18:13:21.133Z,100697.56
2022-12-31T18:15:47.501Z,100687.00
2022-12-31T18:18:24.327Z,100694.94
2022-12-31T18:20:54.095Z,100687.97
2022-12-31T18:23:28.517Z,100688.94
2022-12-31T18:25:55.231Z,100677.53
2022-12-31T18:28:21.689Z,100688.06
2022-12-31T18:30:48.833Z,100681.72
2022-12-31T18:33:22.356Z,100685.09
2022-12-31T18:36:09.885Z,100687.75
2022-12-31T18:38:36.908Z,100680.78
2022-12-31T18:41:04.232Z,100687.75
2022-12-31T18:43:30.933Z,100684.16
2022-12-31T18:45:57.619Z,100699.75
2022-12-31T18:48:24.068Z,100695.31
2022-12-31T18:50:50.851Z,100687.50
2022-12-31T18:53:22.082Z,100688.00
2022-12-31T18:55:49.897Z,100705.66
2022-12-31T18:58:16.847Z,100695.09
2022-12-31T19:00:44.433Z,100687.06
2022-12-31T19:03:22.697Z,100693.16
2022-12-31T19:05:50.817Z,100695.34
2022-12-31T19:08:18.691Z,100707.72
2022-12-31T19:10:46.288Z,100723.56
2022-12-31T19:13:14.628Z,100712.13
2022-12-31T19:15:51.885Z,100710.47
2022-12-31T19:18:18.711Z,100718.50
2022-12-31T19:20:45.291Z,100723.69
2022-12-31T19:23:17.968Z,100721.88
2022-12-31T19:25:46.368Z,100714.91
2022-12-31T19:28:17.439Z,100727.91
2022-12-31T19:30:44.771Z,100721.63
2022-12-31T19:33:11.716Z,100710.13
2022-12-31T19:35:39.745Z,100704.13
2022-12-31T19:38:11.915Z,100704.22
2022-12-31T19:40:40.039Z,100709.63
2022-12-31T19:43:12.492Z,100718.28
2022-12-31T19:45:40.667Z,100703.50
2022-12-31T19:48:11.666Z,100699.31
2022-12-31T19:50:42.333Z,100713.22
2022-12-31T19:53:12.003Z,100706.03
2022-12-31T19:55:38.644Z,100718.28
2022-12-31T19:58:06.029Z,100729.56
2022-12-31T20:00:32.814Z,100730.63
2022-12-31T20:02:59.524Z,100736.66
2022-12-31T20:05:26.043Z,100728.72
2022-12-31T20:07:52.414Z,100721.41
2022-12-31T20:10:18.939Z,100736.41
2022-12-31T20:12:45.634Z,100738.47
2022-12-31T20:15:12.095Z,100739.41
2022-12-31T20:17:38.536Z,100727.91
2022-12-31T20:20:06.702Z,100729.56
2022-12-31T20:22:33.621Z,100732.72
2022-12-31T20:25:00.161Z,100748.56
2022-12-31T20:27:26.720Z,100753.00
2022-12-31T20:29:53.170Z,100750.00
2022-12-31T20:32:19.715Z,100733.56
2022-12-31T20:34:46.088Z,100736.41
2022-12-31T20:37:12.553Z,100736.19
2022-12-31T20:39:38.968Z,100744.25
2022-12-31T20:42:05.413Z,100723.31
2022-12-31T20:44:31.816Z,100743.50
2022-12-31T20:46:58.191Z,100732.72
2022-12-31T20:49:52.099Z,100743.78
2022-12-31T20:52:11.009Z,100758.88
2022-12-31T20:54:37.468Z,100745.44
2022-12-31T20:57:03.945Z,100749.78
2022-12-31T20:59:31.252Z,100750.50
2022-12-31T21:02:21.029Z,100750.50
2022-12-31T21:04:45.332Z,100746.06
2022-12-31T21:07:11.878Z,100762.53
2022-12-31T21:09:38.236Z,100746.91
2022-12-31T21:12:23.211Z,100748.56
2022-12-31T21:14:49.580Z,100759.75
2022-12-31T21:17:15.904Z,100763.25
2022-12-31T21:19:42.360Z,100751.72
2022-12-31T21:22:08.688Z,100746.69
2022-12-31T21:24:35.063Z,100757.25
2022-12-31T21:27:01.479Z,100763.25
2022-12-31T21:29:31.332Z,100765.16
2022-12-31T21:32:00.888Z,100769.63
2022-12-31T21:34:27.284Z,100780.06
2022-12-31T21:36:53.682Z,100786.19
2022-12-31T21:39:20.043Z,100796.28
2022-12-31T21:41:52.130Z,100791.84
2022-12-31T21:44:28.343Z,100797.25
2022-12-31T21:47:36.444Z,100807.69
2022-12-31T21:50:05.209Z,100799.28
2022-12-31T21:52:33.893Z,100802.16
2022-12-31T21:55:20.891Z,100797.59
2022-12-31T21:58:24.380Z,100797.69
2022-12-31T22:00:55.124Z,100792.31
2022-12-31T22:03:24.278Z,100803.38
2022-12-31T22:05:58.782Z,100800.50
2022-12-31T22:08:25.900Z,100789.09
2022-12-31T22:10:53.210Z,100791.38
2022-12-31T22:13:19.929Z,100793.19
2022-12-31T22:15:48.225Z,100780.81
2022-12-31T22:18:16.369Z,100794.97
2022-12-31T22:20:42.805Z,100793.31
2022-12-31T22:23:09.365Z,100785.59
2022-12-31T22:25:37.800Z,100801.34
2022-12-31T22:28:37.031Z,100793.53
2022-12-31T22:30:52.108Z,100799.56
2022-12-31T22:33:18.814Z,100802.31
2022-12-31T22:35:45.197Z,100806.75
2022-12-31T22:38:12.349Z,100809.38
2022-12-31T22:40:39.286Z,100808.69
2022-12-31T22:43:05.624Z,100793.53
2022-12-31T22:45:31.983Z,100805.47
2022-12-31T22:47:58.359Z,100803.66
2022-12-31T22:50:24.717Z,100798.59
2022-12-31T22:52:51.091Z,100813.59
2022-12-31T22:55:17.507Z,100813.47
2022-12-31T22:57:43.843Z,100833.53
2022-12-31T23:00:13.651Z,100807.97
2022-12-31T23:02:42.236Z,100818.44
2022-12-31T23:05:16.123Z,100822.03
2022-12-31T23:07:43.057Z,100821.31
2022-12-31T23:10:29.295Z,100829.94
2022-12-31T23:12:55.624Z,100823.47
2022-12-31T23:15:40.388Z,100825.53
2022-12-31T23:18:25.165Z,100821.41
2022-12-31T23:21:09.953Z,100830.06
2022-12-31T23:23:36.345Z,100840.75
2022-12-31T23:26:02.804Z,100830.31
2022-12-31T23:28:29.176Z,100845.91
2022-12-31T23:30:55.544Z,100850.97
2022-12-31T23:33:26.538Z,100854.69
2022-12-31T23:36:06.823Z,100842.44
2022-12-31T23:38:33.297Z,100855.19
2022-12-31T23:40:59.708Z,100859.38
2022-12-31T23:43:26.084Z,100850.00
2022-12-31T23:45:53.149Z,100844.84
2022-12-31T23:48:19.895Z,100858.88
2022-12-31T23:50:53.012Z,100855.53
2022-12-31T23:53:20.477Z,100864.19
2022-12-31T23:55:46.812Z,100868.31
2022-12-31T23:58:13.194Z,100876.22
